Covelo, CA

9:22 PM PST on November 19, 2019 (GMT -0800)
Round Valley | | Change Station
Active Advisory: Fire Weather Warning

Elev 1342 ft 39.75 °N, 123.21 °W | Updated 7 minutes ago

Partly Cloudy
Partly Cloudy
50.2 °F
Feels Like 50.2 °F
N
4
Wind Variable Wind from NW
Gusts 9.0 mph

Today
High -- | Low -- °F
--% Chance of Precip.
Yesterday
High -- | Low -- °F
Precip. -- in
Pressure 29.65 in
Visibility 9.0 miles
Clouds Few 1600 ft
Overcast 8500 ft
Dew Point 41 °F
Humidity 70%
Rainfall 0.00 in
Snow Depth Not available.
7:02 AM 4:54 PM
Last Quarter, 46% visible
METAR KUKI 200356Z AUTO 34010G16KT 9SM -RA FEW016 OVC085 12/06 A2966 RMK AO2 RAB48 SLP041 P0000 T01220056
Pressure 29.65 in
Visibility 9.0 miles
Clouds Few 1600 ft
Overcast 8500 ft
Dew Point 41 °F
Humidity 70%
Rainfall 0.00 in
Snow Depth Not available.
7:02 AM 4:54 PM
Last Quarter, 46% visible
METAR KUKI 200356Z AUTO 34010G16KT 9SM -RA FEW016 OVC085 12/06 A2966 RMK AO2 RAB48 SLP041 P0000 T01220056

Get Your Daily Forecast Email!

Thanks for signing up!

Be on the lookout for a verification email in your inbox.

You'll start receiving severe weather alerts in your inbox..

×

10-Day Weather Forecast

Almanac

Astronomy

Nov. 19, 2019 Rise Set
Actual Time
Civil Twilight
Nautical Twilight
Astronomical Twilight
Moon
Length of Visible Light
Length of Day
Tomorrow will be .
, % of the Moon is Illuminated

Today's Extremes

State Highs State Lows

Community

WunderPhotos

Category 6

Welcome to Category 6. This is the collective home for Weather Underground's featured writeups by Dr. Jeff Masters (right), Bob Henson (left), Chris Burt, and other regular contributors.

Nearby

Air Quality

  Air Quality AQ Index Pollutant
Not available.

Snow Depth

Station Depth Elevation

Earthquake Activity

City Distance Mag. Time & Date
Minimum magnitude displayed is 2.5.

Coastal Water Temperatures

Place Temperature

Stations

Nearby Weather Stations

Station Location Temp. Windchill Dew Point Humidity Wind Precip. Elev Updated Type
                   

Watches & Warnings

Fire Weather Warning
Issued: 1:41 PM PST Nov. 19, 2019 – National Weather Service

... Red flag warning remains in effect from 4 am Wednesday to 7 am
PST Thursday...

* affected area... elevations above 1,500 feet.

* Wind... north to northeast... sustained 15 to 25 mph with gusts
between 35 and 45 mph expected at high elevations.

* Humidity... dropping to 20 to 30 percent Wednesday afternoon,
with 35 to 50 percent humidity recoveries Wednesday night at
high elevations.

* Impacts... any fires that develop will likely spread rapidly.
Outdoor burning is not recommended.

Precautionary/preparedness actions...

A red flag warning means that critical fire weather conditions
are either occurring now, or will shortly. A combination of
strong winds, low relative humidity, and warm temperatures can
contribute to extreme fire behavior.




Http://weather.Gov/Eureka